createdAt,value
2022-07-31T00:00:25.536Z,21.30
2022-07-31T00:02:52.572Z,21.30
2022-07-31T00:05:19.569Z,21.20
2022-07-31T00:07:46.818Z,21.10
2022-07-31T00:10:13.820Z,21.10
2022-07-31T00:12:40.883Z,21.00
2022-07-31T00:15:12.544Z,21.00
2022-07-31T00:17:40.762Z,20.90
2022-07-31T00:20:09.522Z,20.90
2022-07-31T00:22:36.514Z,20.80
2022-07-31T00:25:03.848Z,20.80
2022-07-31T00:27:30.908Z,20.70
2022-07-31T00:29:57.922Z,20.70
2022-07-31T00:32:24.957Z,20.80
2022-07-31T00:34:52.074Z,20.80
2022-07-31T00:37:19.047Z,20.70
2022-07-31T00:39:46.014Z,20.70
2022-07-31T00:42:25.007Z,20.60
2022-07-31T00:44:52.537Z,20.30
2022-07-31T00:47:23.921Z,20.20
2022-07-31T00:49:52.676Z,20.10
2022-07-31T00:52:20.021Z,20.10
2022-07-31T00:54:46.999Z,20.00
2022-07-31T00:57:15.363Z,20.00
2022-07-31T00:59:43.677Z,20.00
2022-07-31T01:02:11.210Z,19.90
2022-07-31T01:04:41.575Z,20.00
2022-07-31T01:07:09.326Z,20.10
2022-07-31T01:09:36.426Z,20.20
2022-07-31T01:12:15.478Z,20.10
2022-07-31T01:14:49.640Z,20.10
2022-07-31T01:17:19.567Z,19.90
2022-07-31T01:19:49.854Z,20.00
2022-07-31T01:22:46.923Z,19.90
2022-07-31T01:25:47.564Z,19.80
2022-07-31T01:28:43.698Z,19.70
2022-07-31T01:31:26.757Z,19.50
2022-07-31T01:34:08.340Z,19.60
2022-07-31T01:36:42.675Z,19.50
2022-07-31T01:39:10.052Z,19.40
2022-07-31T01:41:43.568Z,19.20
2022-07-31T01:44:14.203Z,19.00
2022-07-31T01:46:43.687Z,18.90
2022-07-31T01:49:12.199Z,18.90
2022-07-31T01:51:41.823Z,18.60
2022-07-31T01:54:10.678Z,18.60
2022-07-31T01:56:39.042Z,18.50
2022-07-31T01:59:20.484Z,18.40
2022-07-31T02:01:51.541Z,18.30
2022-07-31T02:04:20.826Z,18.20
2022-07-31T02:06:50.091Z,17.90
2022-07-31T02:09:20.167Z,17.90
2022-07-31T02:11:54.370Z,17.70
2022-07-31T02:14:23.091Z,17.80
2022-07-31T02:16:50.387Z,17.90
2022-07-31T02:19:19.265Z,17.90
2022-07-31T02:21:46.427Z,18.10
2022-07-31T02:24:14.023Z,18.20
2022-07-31T02:26:41.444Z,18.30
2022-07-31T02:29:19.863Z,18.30
2022-07-31T02:32:02.993Z,18.40
2022-07-31T02:34:37.618Z,18.50
2022-07-31T02:37:06.248Z,18.30
2022-07-31T02:39:35.003Z,18.20
2022-07-31T02:42:03.751Z,18.30
2022-07-31T02:44:34.750Z,18.30
2022-07-31T02:47:05.845Z,18.30
2022-07-31T02:49:34.051Z,18.40
2022-07-31T02:52:01.752Z,18.20
2022-07-31T02:54:28.877Z,18.30
2022-07-31T02:56:56.502Z,18.30
2022-07-31T02:59:23.908Z,18.30
2022-07-31T03:01:51.036Z,18.20
2022-07-31T03:04:18.067Z,18.10
2022-07-31T03:06:45.093Z,17.90
2022-07-31T03:09:12.276Z,17.70
2022-07-31T03:11:39.320Z,17.50
2022-07-31T03:14:08.684Z,17.50
2022-07-31T03:16:36.766Z,17.80
2022-07-31T03:19:05.767Z,18.00
2022-07-31T03:21:33.138Z,18.10
2022-07-31T03:24:01.770Z,18.20
2022-07-31T03:26:30.598Z,18.30
2022-07-31T03:29:00.760Z,18.40
2022-07-31T03:31:28.027Z,18.40
2022-07-31T03:33:55.011Z,18.30
2022-07-31T03:36:22.355Z,18.40
2022-07-31T03:38:50.754Z,18.50
2022-07-31T03:41:17.953Z,18.40
2022-07-31T03:43:47.962Z,18.50
2022-07-31T03:46:22.524Z,18.50
2022-07-31T03:48:52.546Z,18.60
2022-07-31T03:51:20.423Z,18.60
2022-07-31T03:53:48.995Z,18.60
2022-07-31T03:56:17.270Z,18.70
2022-07-31T03:58:48.028Z,18.70
2022-07-31T04:01:21.459Z,18.70
2022-07-31T04:03:48.962Z,18.70
2022-07-31T04:06:15.879Z,18.70
2022-07-31T04:08:42.793Z,18.70
2022-07-31T04:11:09.808Z,18.70
2022-07-31T04:13:37.820Z,18.60
2022-07-31T04:16:05.080Z,18.60
2022-07-31T04:18:32.018Z,18.50
2022-07-31T04:20:58.971Z,18.60
2022-07-31T04:23:32.380Z,18.60
2022-07-31T04:25:59.855Z,18.70
2022-07-31T04:28:26.851Z,18.70
2022-07-31T04:30:53.979Z,18.70
2022-07-31T04:33:21.093Z,18.80
2022-07-31T04:35:48.156Z,18.90
2022-07-31T04:38:16.978Z,19.00
2022-07-31T04:40:44.352Z,19.00
2022-07-31T04:43:12.747Z,19.00
2022-07-31T04:45:39.738Z,19.00
2022-07-31T04:48:07.012Z,19.10
2022-07-31T04:50:34.040Z,19.10
2022-07-31T04:53:00.963Z,19.10
2022-07-31T04:55:27.862Z,19.20
2022-07-31T04:57:54.814Z,19.40
2022-07-31T05:00:22.729Z,19.30
2022-07-31T05:02:49.893Z,19.30
2022-07-31T05:05:18.379Z,19.40
2022-07-31T05:07:45.541Z,19.50
2022-07-31T05:10:32.482Z,19.50
2022-07-31T05:13:00.589Z,19.60
2022-07-31T05:15:27.967Z,19.70
2022-07-31T05:17:54.925Z,19.70
2022-07-31T05:20:23.635Z,19.70
2022-07-31T05:22:53.135Z,19.70
2022-07-31T05:25:21.347Z,19.90
2022-07-31T05:27:49.958Z,19.90
2022-07-31T05:30:17.081Z,20.00
2022-07-31T05:32:58.540Z,20.10
2022-07-31T05:35:26.623Z,20.30
2022-07-31T05:37:53.584Z,20.40
2022-07-31T05:40:20.747Z,20.60
2022-07-31T05:42:47.892Z,20.60
2022-07-31T05:45:14.845Z,20.60
2022-07-31T05:47:41.854Z,20.60
2022-07-31T05:50:09.915Z,20.80
2022-07-31T05:52:37.101Z,20.80
2022-07-31T05:55:05.202Z,20.90
2022-07-31T05:57:34.197Z,20.90
2022-07-31T06:00:03.735Z,20.80
2022-07-31T06:02:31.406Z,21.00
2022-07-31T06:04:58.400Z,20.90
2022-07-31T06:07:25.517Z,21.00
2022-07-31T06:09:52.813Z,21.10
2022-07-31T06:12:19.967Z,21.10
2022-07-31T06:14:47.042Z,21.20
2022-07-31T06:17:14.344Z,21.30
2022-07-31T06:19:41.449Z,21.20
2022-07-31T06:22:08.923Z,21.40
2022-07-31T06:24:38.390Z,21.60
2022-07-31T06:27:11.373Z,21.70
2022-07-31T06:29:50.320Z,21.60
2022-07-31T06:32:17.334Z,21.80
2022-07-31T06:34:44.971Z,21.90
2022-07-31T06:37:12.185Z,22.10
2022-07-31T06:39:55.895Z,22.20
2022-07-31T06:42:25.275Z,22.00
2022-07-31T06:44:53.627Z,22.10
2022-07-31T06:47:27.006Z,22.20
2022-07-31T06:49:55.103Z,22.20
2022-07-31T06:52:22.384Z,22.30
2022-07-31T06:54:49.785Z,22.10
2022-07-31T06:57:16.962Z,22.40
2022-07-31T06:59:44.080Z,22.30
2022-07-31T07:02:11.096Z,22.40
2022-07-31T07:04:58.489Z,22.70
2022-07-31T07:07:25.218Z,23.10
2022-07-31T07:09:59.371Z,23.40
2022-07-31T07:12:26.926Z,23.80
2022-07-31T07:14:55.411Z,24.00
2022-07-31T07:17:27.178Z,24.20
2022-07-31T07:19:55.947Z,24.10
2022-07-31T07:22:31.237Z,24.20
2022-07-31T07:25:01.090Z,24.30
2022-07-31T07:27:28.154Z,24.60
2022-07-31T07:29:55.610Z,24.60
2022-07-31T07:32:22.668Z,24.60
2022-07-31T07:34:49.561Z,24.70
2022-07-31T07:37:27.779Z,25.10
2022-07-31T07:39:54.763Z,25.20
2022-07-31T07:42:21.671Z,25.60
2022-07-31T07:44:48.646Z,25.70
2022-07-31T07:47:16.096Z,26.10
2022-07-31T07:49:43.147Z,26.30
2022-07-31T07:52:10.480Z,26.50
2022-07-31T07:54:37.662Z,26.90
2022-07-31T07:57:04.662Z,26.80
2022-07-31T07:59:31.706Z,26.90
2022-07-31T08:01:58.599Z,26.90
2022-07-31T08:04:25.511Z,27.30
2022-07-31T08:06:52.634Z,27.20
2022-07-31T08:09:21.145Z,26.80
2022-07-31T08:11:48.122Z,26.60
2022-07-31T08:14:15.350Z,26.70
2022-07-31T08:16:42.564Z,26.70
2022-07-31T08:19:09.590Z,26.70
2022-07-31T08:21:37.428Z,26.60
2022-07-31T08:24:04.840Z,26.60
2022-07-31T08:26:52.041Z,26.70
2022-07-31T08:29:19.179Z,27.00
2022-07-31T08:31:55.071Z,27.10
2022-07-31T08:34:30.649Z,27.80
2022-07-31T08:36:59.721Z,27.70
2022-07-31T08:39:50.851Z,27.90
2022-07-31T08:42:18.648Z,27.70
2022-07-31T08:44:46.859Z,27.40
2022-07-31T08:47:17.652Z,27.10
2022-07-31T08:49:47.222Z,26.90
2022-07-31T08:52:22.099Z,26.80
2022-07-31T08:54:52.235Z,26.80
2022-07-31T08:57:20.654Z,27.10
2022-07-31T08:59:52.309Z,27.50
2022-07-31T09:02:19.626Z,28.30
2022-07-31T09:04:52.109Z,28.20
2022-07-31T09:07:19.753Z,28.00
2022-07-31T09:09:51.682Z,28.00
2022-07-31T09:12:33.982Z,27.70
2022-07-31T09:15:01.489Z,27.60
2022-07-31T09:17:36.689Z,27.70
2022-07-31T09:20:05.757Z,27.40
2022-07-31T09:22:33.900Z,27.50
2022-07-31T09:25:15.974Z,27.70
2022-07-31T09:27:43.114Z,28.00
2022-07-31T09:30:10.687Z,28.00
2022-07-31T09:32:37.912Z,28.00
2022-07-31T09:35:13.835Z,28.00
2022-07-31T09:37:41.381Z,27.70
2022-07-31T09:40:09.470Z,28.00
2022-07-31T09:42:45.972Z,28.30
2022-07-31T09:45:24.240Z,28.50
2022-07-31T09:48:13.763Z,28.60
2022-07-31T09:51:00.068Z,29.00
2022-07-31T09:53:27.907Z,29.40
2022-07-31T09:55:58.311Z,30.00
2022-07-31T09:58:25.298Z,30.40
2022-07-31T10:00:56.543Z,30.90
2022-07-31T10:03:25.382Z,31.30
2022-07-31T10:05:55.325Z,31.80
2022-07-31T10:08:24.442Z,32.00
2022-07-31T10:10:51.822Z,32.00
2022-07-31T10:13:21.100Z,32.20
2022-07-31T10:15:51.931Z,32.40
2022-07-31T10:18:35.511Z,31.90
2022-07-31T10:21:07.157Z,31.70
2022-07-31T10:23:39.240Z,31.10
2022-07-31T10:26:07.805Z,30.70
2022-07-31T10:28:38.206Z,30.90
2022-07-31T10:31:06.159Z,31.60
2022-07-31T10:33:43.994Z,31.90
2022-07-31T10:36:18.728Z,31.90
2022-07-31T10:39:05.114Z,32.00
2022-07-31T10:42:26.953Z,31.60
2022-07-31T10:45:11.091Z,31.10
2022-07-31T10:47:38.415Z,31.20
2022-07-31T10:50:07.063Z,32.00
2022-07-31T10:52:37.958Z,32.10
2022-07-31T10:55:22.399Z,32.20
2022-07-31T10:57:57.288Z,32.40
2022-07-31T11:00:30.045Z,32.80
2022-07-31T11:02:57.631Z,32.80
2022-07-31T11:05:27.737Z,32.40
2022-07-31T11:08:07.813Z,32.20
2022-07-31T11:10:35.309Z,32.00
2022-07-31T11:13:12.896Z,31.90
2022-07-31T11:15:40.465Z,32.00
2022-07-31T11:18:22.601Z,31.80
2022-07-31T11:21:17.437Z,31.80
2022-07-31T11:23:55.990Z,32.00
2022-07-31T11:26:33.404Z,31.90
2022-07-31T11:29:58.735Z,31.80
2022-07-31T11:32:07.144Z,31.80
2022-07-31T11:34:51.066Z,32.10
2022-07-31T11:37:22.792Z,32.20
2022-07-31T11:39:53.755Z,32.20
2022-07-31T11:42:25.305Z,32.20
2022-07-31T11:45:02.399Z,32.80
2022-07-31T11:48:12.962Z,32.90
2022-07-31T11:50:42.987Z,33.00
2022-07-31T11:53:10.793Z,33.10
2022-07-31T11:56:10.492Z,33.10
2022-07-31T11:58:38.739Z,33.00
2022-07-31T12:01:05.793Z,32.70
2022-07-31T12:03:38.646Z,32.90
2022-07-31T12:06:08.309Z,32.80
2022-07-31T12:08:37.899Z,32.90
2022-07-31T12:11:08.220Z,33.10
2022-07-31T12:13:35.615Z,33.10
2022-07-31T12:16:09.719Z,33.30
2022-07-31T12:18:56.984Z,32.70
2022-07-31T12:21:33.412Z,32.20
2022-07-31T12:24:01.088Z,32.00
2022-07-31T12:26:32.047Z,32.40
2022-07-31T12:29:12.901Z,33.00
2022-07-31T12:31:54.397Z,32.60
2022-07-31T12:34:42.955Z,32.30
2022-07-31T12:37:13.264Z,32.10
2022-07-31T12:40:01.709Z,32.40
2022-07-31T12:42:40.808Z,33.00
2022-07-31T12:45:19.519Z,33.50
2022-07-31T12:47:52.092Z,33.70
2022-07-31T12:50:23.610Z,33.20
2022-07-31T12:52:50.915Z,33.00
2022-07-31T12:55:18.252Z,33.00
2022-07-31T12:57:50.375Z,33.40
2022-07-31T13:00:23.819Z,33.60
2022-07-31T13:02:56.691Z,33.50
2022-07-31T13:05:25.156Z,33.50
2022-07-31T13:07:52.649Z,33.30
2022-07-31T13:10:23.712Z,33.40
2022-07-31T13:12:52.776Z,33.20
2022-07-31T13:15:23.408Z,32.60
2022-07-31T13:17:51.211Z,32.10
2022-07-31T13:20:21.453Z,32.10
2022-07-31T13:22:49.463Z,32.60
2022-07-31T13:25:17.119Z,32.80
2022-07-31T13:27:44.209Z,33.20
2022-07-31T13:30:11.687Z,33.20
2022-07-31T13:32:38.620Z,32.80
2022-07-31T13:35:23.981Z,32.70
2022-07-31T13:38:00.960Z,32.70
2022-07-31T13:40:47.096Z,32.70
2022-07-31T13:43:14.451Z,32.50
2022-07-31T13:45:41.831Z,32.50
2022-07-31T13:48:10.092Z,32.60
2022-07-31T13:50:41.422Z,33.00
2022-07-31T13:53:09.416Z,33.50
2022-07-31T13:55:37.187Z,33.50
2022-07-31T13:58:04.509Z,33.50
2022-07-31T14:00:32.160Z,33.20
2022-07-31T14:02:59.387Z,33.00
2022-07-31T14:05:27.599Z,32.80
2022-07-31T14:07:56.135Z,32.80
2022-07-31T14:10:23.954Z,33.20
2022-07-31T14:12:51.230Z,33.50
2022-07-31T14:15:18.482Z,33.50
2022-07-31T14:17:45.995Z,33.60
2022-07-31T14:20:13.780Z,33.60
2022-07-31T14:22:42.199Z,33.70
2022-07-31T14:25:10.535Z,33.70
2022-07-31T14:27:38.718Z,33.70
2022-07-31T14:30:08.019Z,33.40
2022-07-31T14:32:35.280Z,33.20
2022-07-31T14:35:07.754Z,33.30
2022-07-31T14:37:36.775Z,33.70
2022-07-31T14:40:07.467Z,33.70
2022-07-31T14:42:34.712Z,33.40
2022-07-31T14:45:06.692Z,32.90
2022-07-31T14:47:38.655Z,32.60
2022-07-31T14:50:12.106Z,32.80
2022-07-31T14:52:40.810Z,33.00
2022-07-31T14:55:08.557Z,33.20
2022-07-31T14:57:35.752Z,33.20
2022-07-31T15:00:03.788Z,32.80
2022-07-31T15:02:30.864Z,32.60
2022-07-31T15:04:57.815Z,32.80
2022-07-31T15:07:46.951Z,32.80
2022-07-31T15:10:14.347Z,32.80
2022-07-31T15:12:41.424Z,32.90
2022-07-31T15:15:09.137Z,32.90
2022-07-31T15:17:36.097Z,32.80
2022-07-31T15:20:03.967Z,32.90
2022-07-31T15:22:30.925Z,33.00
2022-07-31T15:24:57.846Z,33.00
2022-07-31T15:27:25.085Z,32.80
2022-07-31T15:30:03.301Z,32.80
2022-07-31T15:32:38.732Z,33.00
2022-07-31T15:35:09.503Z,33.00
2022-07-31T15:37:38.593Z,32.90
2022-07-31T15:40:09.057Z,33.00
2022-07-31T15:42:40.598Z,32.90
2022-07-31T15:45:18.385Z,32.80
2022-07-31T15:47:46.763Z,32.80
2022-07-31T15:50:19.460Z,32.70
2022-07-31T15:52:47.653Z,32.70
2022-07-31T15:55:16.844Z,32.70
2022-07-31T15:57:43.994Z,32.80
2022-07-31T16:00:15.149Z,32.70
2022-07-31T16:02:43.209Z,32.70
2022-07-31T16:05:22.173Z,32.60
2022-07-31T16:08:32.246Z,32.60
2022-07-31T16:10:49.981Z,32.60
2022-07-31T16:13:19.539Z,32.50
2022-07-31T16:15:46.459Z,32.40
2022-07-31T16:18:18.437Z,32.40
2022-07-31T16:20:45.892Z,32.40
2022-07-31T16:23:12.931Z,32.30
2022-07-31T16:25:39.860Z,32.30
2022-07-31T16:28:06.826Z,32.20
2022-07-31T16:30:34.180Z,32.30
2022-07-31T16:33:01.403Z,32.30
2022-07-31T16:35:28.491Z,32.30
2022-07-31T16:37:55.633Z,32.20
2022-07-31T16:40:30.490Z,32.40
2022-07-31T16:43:48.237Z,32.40
2022-07-31T16:45:54.935Z,32.50
2022-07-31T16:48:22.483Z,32.40
2022-07-31T16:50:54.442Z,32.40
2022-07-31T16:54:10.504Z,32.40
2022-07-31T16:56:16.028Z,32.40
2022-07-31T16:58:44.451Z,32.40
2022-07-31T17:01:53.867Z,32.40
2022-07-31T17:04:04.002Z,32.50
2022-07-31T17:06:42.451Z,32.60
2022-07-31T17:09:15.230Z,32.70
2022-07-31T17:11:48.025Z,32.90
2022-07-31T17:14:19.455Z,32.90
2022-07-31T17:16:49.204Z,32.90
2022-07-31T17:19:41.621Z,32.70
2022-07-31T17:22:07.242Z,32.50
2022-07-31T17:24:37.368Z,32.40
2022-07-31T17:27:07.386Z,32.60
2022-07-31T17:29:35.220Z,32.60
2022-07-31T17:32:02.447Z,32.50
2022-07-31T17:34:29.580Z,32.70
2022-07-31T17:36:56.647Z,32.50
2022-07-31T17:39:26.185Z,32.50
2022-07-31T17:41:57.565Z,32.50
2022-07-31T17:44:24.762Z,32.50
2022-07-31T17:46:53.074Z,32.40
2022-07-31T17:49:20.921Z,32.60
2022-07-31T17:51:57.612Z,32.60
2022-07-31T17:54:30.763Z,32.60
2022-07-31T17:56:58.825Z,32.40
2022-07-31T17:59:26.957Z,32.40
2022-07-31T18:02:02.117Z,32.50
2022-07-31T18:04:31.612Z,32.40
2022-07-31T18:07:00.563Z,32.20
2022-07-31T18:09:28.923Z,32.00
2022-07-31T18:11:57.654Z,31.80
2022-07-31T18:14:25.084Z,31.40
2022-07-31T18:16:52.890Z,31.20
2022-07-31T18:19:21.810Z,30.90
2022-07-31T18:21:50.452Z,30.60
2022-07-31T18:24:17.576Z,30.40
2022-07-31T18:26:44.588Z,30.30
2022-07-31T18:29:11.699Z,30.10
2022-07-31T18:31:39.778Z,29.90
2022-07-31T18:34:07.313Z,29.80
2022-07-31T18:36:35.155Z,29.50
2022-07-31T18:39:03.770Z,29.50
2022-07-31T18:41:31.711Z,29.50
2022-07-31T18:43:59.033Z,29.20
2022-07-31T18:46:26.803Z,29.00
2022-07-31T18:48:55.967Z,28.90
2022-07-31T18:51:28.530Z,28.70
2022-07-31T18:53:56.178Z,28.60
2022-07-31T18:56:25.083Z,28.40
2022-07-31T18:58:53.014Z,28.20
2022-07-31T19:01:20.943Z,28.00
2022-07-31T19:03:48.176Z,27.80
2022-07-31T19:06:15.690Z,27.60
2022-07-31T19:08:42.720Z,27.40
2022-07-31T19:11:10.007Z,27.30
2022-07-31T19:13:36.930Z,27.30
2022-07-31T19:16:05.038Z,27.20
2022-07-31T19:18:33.068Z,27.10
2022-07-31T19:21:16.002Z,26.90
2022-07-31T19:23:48.603Z,26.80
2022-07-31T19:26:15.795Z,26.70
2022-07-31T19:28:43.424Z,26.70
2022-07-31T19:31:13.190Z,26.70
2022-07-31T19:33:40.502Z,26.70
2022-07-31T19:36:08.009Z,26.70
2022-07-31T19:38:39.673Z,26.70
2022-07-31T19:41:06.796Z,26.60
2022-07-31T19:43:33.774Z,26.50
2022-07-31T19:46:11.837Z,26.40
2022-07-31T19:48:46.563Z,26.40
2022-07-31T19:51:15.790Z,26.40
2022-07-31T19:53:43.708Z,26.50
2022-07-31T19:56:18.068Z,26.50
2022-07-31T19:58:48.087Z,26.40
2022-07-31T20:01:15.158Z,26.30
2022-07-31T20:03:42.693Z,26.30
2022-07-31T20:06:09.756Z,26.20
2022-07-31T20:08:36.903Z,26.10
2022-07-31T20:11:05.402Z,26.10
2022-07-31T20:13:34.804Z,26.10
2022-07-31T20:16:02.072Z,26.00
2022-07-31T20:18:30.390Z,26.00
2022-07-31T20:21:07.446Z,25.90
2022-07-31T20:23:38.570Z,25.90
2022-07-31T20:26:12.525Z,25.80
2022-07-31T20:28:40.433Z,25.80
2022-07-31T20:31:15.959Z,25.70
2022-07-31T20:33:57.462Z,25.60
2022-07-31T20:36:27.203Z,25.50
2022-07-31T20:38:55.107Z,25.30
2022-07-31T20:41:22.171Z,25.40
2022-07-31T20:43:49.277Z,25.20
2022-07-31T20:46:18.175Z,25.20
2022-07-31T20:48:45.390Z,25.10
2022-07-31T20:51:20.200Z,25.10
2022-07-31T20:53:51.541Z,25.00
2022-07-31T20:56:18.693Z,25.10
2022-07-31T20:58:51.415Z,25.10
2022-07-31T21:01:20.996Z,25.10
2022-07-31T21:03:49.102Z,25.10
2022-07-31T21:06:16.806Z,25.00
2022-07-31T21:08:43.801Z,25.10
2022-07-31T21:11:10.834Z,24.70
2022-07-31T21:13:38.209Z,24.60
2022-07-31T21:16:05.714Z,24.30
2022-07-31T21:18:34.956Z,24.20
2022-07-31T21:21:03.154Z,24.10
2022-07-31T21:23:30.259Z,24.00
2022-07-31T21:25:58.664Z,24.00
2022-07-31T21:28:27.499Z,24.00
2022-07-31T21:30:56.206Z,23.80
2022-07-31T21:33:25.739Z,23.70
2022-07-31T21:35:55.102Z,23.70
2022-07-31T21:38:22.119Z,23.90
2022-07-31T21:40:50.192Z,24.10
2022-07-31T21:43:22.185Z,24.10
2022-07-31T21:45:57.391Z,24.10
2022-07-31T21:48:31.053Z,24.00
2022-07-31T21:50:59.760Z,24.10
2022-07-31T21:53:27.009Z,23.90
2022-07-31T21:55:54.084Z,23.80
2022-07-31T21:58:21.125Z,23.40
2022-07-31T22:00:48.170Z,23.20
2022-07-31T22:03:15.292Z,23.20
2022-07-31T22:06:00.971Z,23.20
2022-07-31T22:08:28.054Z,23.00
2022-07-31T22:10:55.035Z,22.70
2022-07-31T22:13:22.110Z,22.50
2022-07-31T22:15:55.646Z,22.40
2022-07-31T22:18:33.004Z,22.60
2022-07-31T22:21:03.554Z,22.50
2022-07-31T22:23:31.219Z,22.60
2022-07-31T22:25:58.816Z,22.80
2022-07-31T22:28:26.909Z,22.60
2022-07-31T22:30:55.878Z,22.80
2022-07-31T22:33:23.516Z,23.00
2022-07-31T22:35:59.556Z,23.00
2022-07-31T22:38:29.873Z,23.10
2022-07-31T22:40:59.079Z,22.80
2022-07-31T22:44:10.711Z,22.70
2022-07-31T22:46:14.531Z,22.60
2022-07-31T22:48:41.645Z,22.60
2022-07-31T22:51:12.868Z,22.50
2022-07-31T22:53:41.640Z,22.20
2022-07-31T22:56:08.583Z,22.20
2022-07-31T22:58:35.623Z,22.10
2022-07-31T23:01:02.637Z,22.20
2022-07-31T23:03:29.677Z,22.30
2022-07-31T23:06:12.220Z,22.50
2022-07-31T23:08:43.606Z,22.60
2022-07-31T23:11:10.631Z,22.60
2022-07-31T23:13:37.572Z,22.70
2022-07-31T23:16:05.862Z,22.90
2022-07-31T23:18:32.841Z,23.10
2022-07-31T23:21:00.107Z,22.90
2022-07-31T23:23:27.190Z,22.60
2022-07-31T23:25:55.333Z,22.50
2022-07-31T23:28:22.280Z,22.50
2022-07-31T23:30:49.257Z,22.40
2022-07-31T23:33:16.943Z,22.40
2022-07-31T23:35:44.092Z,22.30
2022-07-31T23:38:11.122Z,22.20
2022-07-31T23:40:38.250Z,22.00
2022-07-31T23:43:05.657Z,21.90
2022-07-31T23:45:32.784Z,21.40
2022-07-31T23:47:59.871Z,21.40
2022-07-31T23:50:26.985Z,21.40
2022-07-31T23:52:53.982Z,21.40
2022-07-31T23:55:21.405Z,21.50
2022-07-31T23:57:48.558Z,21.60
